createdAt,value
2019-04-03T00:31:15.948Z,75.77
2019-04-03T00:35:23.130Z,75.65
2019-04-03T00:39:39.857Z,76.30
2019-04-03T00:43:44.913Z,75.95
2019-04-03T00:47:50.620Z,75.43
2019-04-03T00:51:57.675Z,75.43
2019-04-03T01:05:08.657Z,74.11
2019-04-03T01:09:13.903Z,74.53
2019-04-03T01:13:19.207Z,74.08
2019-04-03T01:17:24.631Z,73.97
2019-04-03T01:21:29.722Z,73.64
2019-04-03T01:25:35.056Z,73.92
2019-04-03T01:29:42.238Z,73.82
2019-04-03T01:38:52.599Z,74.15
2019-04-03T01:42:57.747Z,74.47
2019-04-03T01:47:02.953Z,74.16
2019-04-03T01:51:08.196Z,74.54
2019-04-03T01:55:13.340Z,74.46
2019-04-03T01:59:18.409Z,74.30
2019-04-03T02:03:24.046Z,74.28
2019-04-03T02:07:29.568Z,74.06
2019-04-03T02:11:34.737Z,74.01
2019-04-03T02:15:39.943Z,73.81
2019-04-03T02:19:45.193Z,74.19
2019-04-03T02:24:09.561Z,74.55
2019-04-03T02:28:16.528Z,74.88
2019-04-03T02:32:24.130Z,74.96
2019-04-03T02:36:28.499Z,74.50
2019-04-03T02:40:34.289Z,74.38
2019-04-03T02:44:39.612Z,74.09
2019-04-03T02:48:44.748Z,73.99
2019-04-03T02:52:50.175Z,74.47
2019-04-03T02:56:55.764Z,74.63
2019-04-03T03:01:05.250Z,74.70
2019-04-03T03:05:15.005Z,74.66
2019-04-03T03:09:20.215Z,74.70
2019-04-03T03:13:25.526Z,74.29
2019-04-03T03:22:08.185Z,74.87
2019-04-03T03:26:13.589Z,74.74
2019-04-03T03:30:36.263Z,74.69
2019-04-03T03:34:55.965Z,74.72
2019-04-03T03:43:38.321Z,73.67
2019-04-03T03:48:43.640Z,73.76
2019-04-03T03:53:18.137Z,74.73
2019-04-03T03:57:23.919Z,74.15
2019-04-03T04:01:31.487Z,74.23
2019-04-03T04:05:41.794Z,74.55
2019-04-03T04:09:49.593Z,74.72
2019-04-03T04:14:13.401Z,74.36
2019-04-03T04:18:30.074Z,75.59
2019-04-03T04:22:35.292Z,76.10
2019-04-03T04:27:03.197Z,74.43
2019-04-03T04:31:13.624Z,76.68
2019-04-03T04:35:20.647Z,77.48
2019-04-03T04:39:34.844Z,76.10
2019-04-03T04:43:40.021Z,76.26
2019-04-03T04:47:46.468Z,76.80
2019-04-03T04:52:11.468Z,76.99
2019-04-03T04:56:16.663Z,76.08
2019-04-03T05:00:21.917Z,76.01
2019-04-03T05:04:27.141Z,77.07
2019-04-03T05:08:33.554Z,77.06
2019-04-03T05:12:58.547Z,77.80
2019-04-03T05:17:03.692Z,78.28
2019-04-03T05:21:08.916Z,79.21
2019-04-03T05:25:14.177Z,79.41
2019-04-03T05:29:19.651Z,79.91
2019-04-03T05:33:24.783Z,79.67
2019-04-03T05:37:30.598Z,79.68
2019-04-03T05:41:36.126Z,79.68
2019-04-03T05:45:42.246Z,79.11
2019-04-03T05:49:56.108Z,78.92
2019-04-03T05:54:07.999Z,79.09
2019-04-03T05:58:19.004Z,79.19
2019-04-03T06:02:24.230Z,79.68
2019-04-03T06:06:29.391Z,79.91
2019-04-03T06:10:37.453Z,80.50
2019-04-03T06:14:49.602Z,79.79
2019-04-03T06:19:00.771Z,79.45
2019-04-03T06:23:05.843Z,79.51
2019-04-03T06:27:11.548Z,79.57
2019-04-03T06:31:16.756Z,78.88
2019-04-03T06:35:21.994Z,79.35
2019-04-03T06:39:30.441Z,79.26
2019-04-03T06:43:43.576Z,78.66
2019-04-03T06:47:48.703Z,77.23
2019-04-03T06:56:12.497Z,76.63
2019-04-03T07:00:17.948Z,77.55
2019-04-03T07:05:03.425Z,77.34
2019-04-03T07:09:21.754Z,77.87
2019-04-03T07:13:35.673Z,77.31
2019-04-03T07:17:41.413Z,78.62
2019-04-03T07:21:46.822Z,80.25
2019-04-03T07:25:52.232Z,79.53
2019-04-03T07:29:57.390Z,78.96
2019-04-03T07:34:04.197Z,78.40
2019-04-03T07:38:09.314Z,77.50
2019-04-03T07:42:15.036Z,78.34
2019-04-03T07:46:40.005Z,75.91
2019-04-03T07:50:45.227Z,78.41
2019-04-03T07:54:52.913Z,79.62
2019-04-03T07:59:17.987Z,79.81
2019-04-03T08:03:23.279Z,79.61
2019-04-03T08:07:28.731Z,78.75
2019-04-03T08:11:33.907Z,77.13
2019-04-03T08:15:46.675Z,75.66
2019-04-03T08:19:53.674Z,74.86
2019-04-03T08:24:07.420Z,74.73
2019-04-03T08:28:17.118Z,75.90
2019-04-03T08:32:24.217Z,76.49
2019-04-03T08:36:38.756Z,76.46
2019-04-03T08:40:53.175Z,76.27
2019-04-03T08:44:58.272Z,76.35
2019-04-03T08:49:03.826Z,76.34
2019-04-03T08:53:15.780Z,76.84
2019-04-03T17:50:07.501Z,56.48
2019-04-03T19:59:36.791Z,66.03
2019-04-03T22:11:15.107Z,67.57
2019-04-03T22:15:20.527Z,67.47
2019-04-03T22:20:13.062Z,67.25
2019-04-03T23:52:34.792Z,69.30
